createdAt,value
2018-11-26T00:02:51.512Z,21.20
2018-11-26T00:07:03.502Z,20.17
2018-11-26T00:11:25.531Z,19.50
2018-11-26T00:15:38.142Z,14.87
2018-11-26T00:19:50.530Z,17.73
2018-11-26T00:24:02.819Z,16.67
2018-11-26T00:28:15.001Z,15.87
2018-11-26T00:32:27.202Z,16.27
2018-11-26T00:36:39.587Z,17.63
2018-11-26T00:40:52.847Z,14.50
2018-11-26T00:45:04.829Z,16.60
2018-11-26T00:49:16.841Z,15.37
2018-11-26T00:53:28.986Z,17.63
2018-11-26T00:57:41.109Z,17.87
2018-11-26T01:01:53.304Z,16.07
2018-11-26T01:06:05.581Z,17.80
2018-11-26T01:10:17.833Z,13.70
2018-11-26T01:14:30.247Z,15.87
2018-11-26T01:18:42.498Z,12.17
2018-11-26T01:22:54.680Z,14.73
2018-11-26T01:27:07.204Z,13.00
2018-11-26T01:31:19.386Z,13.77
2018-11-26T01:35:31.841Z,19.33
2018-11-26T01:39:43.895Z,12.20
2018-11-26T01:43:56.954Z,17.03
2018-11-26T01:48:09.264Z,13.23
2018-11-26T01:52:21.573Z,12.47
2018-11-26T01:56:33.816Z,12.87
2018-11-26T02:00:46.131Z,15.03
2018-11-26T02:04:58.206Z,17.40
2018-11-26T02:09:10.430Z,16.07
2018-11-26T02:13:22.723Z,20.67
2018-11-26T02:17:34.966Z,16.47
2018-11-26T02:21:47.177Z,14.57
2018-11-26T02:25:59.274Z,14.37
2018-11-26T02:30:11.926Z,15.83
2018-11-26T02:34:24.494Z,12.97
2018-11-26T02:38:36.602Z,12.80
2018-11-26T02:42:49.612Z,13.83
2018-11-26T02:47:02.257Z,17.97
2018-11-26T02:51:16.125Z,18.13
2018-11-26T02:55:28.066Z,16.47
2018-11-26T02:59:40.245Z,16.10
2018-11-26T03:03:52.313Z,17.17
2018-11-26T03:08:04.573Z,16.00
2018-11-26T03:12:16.753Z,15.87
2018-11-26T03:16:28.975Z,18.87
2018-11-26T03:20:41.438Z,17.10
2018-11-26T03:24:53.714Z,16.13
2018-11-26T03:29:06.214Z,15.60
2018-11-26T03:33:18.378Z,13.93
2018-11-26T03:37:30.666Z,16.63
2018-11-26T03:41:42.838Z,14.57
2018-11-26T03:45:55.055Z,20.77
2018-11-26T03:50:07.411Z,13.53
2018-11-26T03:54:19.427Z,13.53
2018-11-26T03:58:31.434Z,13.77
2018-11-26T04:02:43.607Z,12.67
2018-11-26T04:06:55.885Z,15.53
2018-11-26T04:11:08.449Z,12.53
2018-11-26T04:15:20.311Z,16.17
2018-11-26T04:19:32.379Z,13.20
2018-11-26T04:23:44.469Z,14.43
2018-11-26T04:27:56.479Z,14.40
2018-11-26T04:32:08.702Z,14.43
2018-11-26T04:36:20.772Z,12.87
2018-11-26T04:40:32.943Z,16.07
2018-11-26T04:44:44.943Z,13.70
2018-11-26T04:48:57.014Z,15.97
2018-11-26T04:53:10.632Z,12.77
2018-11-26T04:57:23.263Z,11.57
2018-11-26T05:01:35.647Z,13.33
2018-11-26T05:05:48.011Z,14.57
2018-11-26T05:10:00.439Z,15.03
2018-11-26T05:14:13.184Z,15.47
2018-11-26T05:18:25.720Z,15.70
2018-11-26T05:22:38.032Z,16.43
2018-11-26T05:26:50.422Z,16.40
2018-11-26T05:31:02.848Z,15.93
2018-11-26T05:35:15.075Z,16.07
2018-11-26T05:39:27.153Z,17.37
2018-11-26T05:43:41.513Z,16.43
2018-11-26T05:47:54.065Z,18.17
2018-11-26T05:52:06.525Z,15.13
2018-11-26T05:56:18.844Z,13.87
2018-11-26T06:01:34.282Z,13.60
2018-11-26T06:05:46.388Z,12.00
2018-11-26T06:10:01.883Z,13.60
2018-11-26T06:14:14.044Z,11.53
2018-11-26T06:18:25.993Z,9.03
2018-11-26T06:22:38.116Z,10.03
2018-11-26T06:26:50.208Z,13.13
2018-11-26T06:31:02.246Z,12.83
2018-11-26T06:35:20.574Z,13.70
2018-11-26T06:39:32.829Z,14.00
2018-11-26T06:43:45.197Z,14.63
2018-11-26T06:47:57.238Z,14.60
2018-11-26T06:52:09.272Z,14.90
2018-11-26T06:56:21.297Z,15.57
2018-11-26T07:00:33.463Z,16.57
2018-11-26T07:04:45.563Z,25.30
2018-11-26T07:08:57.759Z,24.27
2018-11-26T07:13:10.098Z,21.63
2018-11-26T07:17:22.304Z,22.27
2018-11-26T07:21:34.456Z,21.40
2018-11-26T07:25:46.524Z,21.03
2018-11-26T07:29:58.719Z,17.33
2018-11-26T07:34:10.835Z,15.30
2018-11-26T07:38:23.142Z,14.37
2018-11-26T07:42:35.430Z,14.23
2018-11-26T07:46:47.462Z,23.73
2018-11-26T07:50:59.654Z,31.03
2018-11-26T07:55:26.361Z,31.00
2018-11-26T07:59:38.326Z,19.50
2018-11-26T08:03:50.399Z,14.37
2018-11-26T08:08:03.168Z,15.43
2018-11-26T08:12:15.665Z,20.07
2018-11-26T08:16:28.195Z,17.33
2018-11-26T08:20:40.617Z,18.27
2018-11-26T08:24:52.657Z,21.07
2018-11-26T08:29:04.975Z,24.17
2018-11-26T08:33:17.180Z,27.87
2018-11-26T08:37:34.269Z,28.17
2018-11-26T08:41:56.545Z,25.50
2018-11-26T08:46:10.435Z,24.03
2018-11-26T08:50:22.517Z,19.90
2018-11-26T08:54:34.590Z,24.20
2018-11-26T08:58:46.715Z,25.17
2018-11-26T09:04:07.749Z,25.50
2018-11-26T09:08:19.820Z,19.80
2018-11-26T09:12:32.007Z,22.33
2018-11-26T09:16:44.137Z,19.30
2018-11-26T09:20:56.344Z,21.10
2018-11-26T09:25:12.256Z,20.83
2018-11-26T09:29:24.304Z,20.07
2018-11-26T09:33:36.299Z,24.60
2018-11-26T09:37:48.503Z,18.43
2018-11-26T09:42:00.619Z,20.27
2018-11-26T09:46:12.638Z,18.07
2018-11-26T09:50:25.274Z,17.33
2018-11-26T09:54:37.386Z,18.33
2018-11-26T09:58:49.535Z,14.97
2018-11-26T10:03:01.685Z,15.83
2018-11-26T10:07:13.728Z,12.57
2018-11-26T10:11:25.972Z,15.03
2018-11-26T10:15:38.055Z,19.83
2018-11-26T10:19:50.419Z,14.23
2018-11-26T10:24:02.599Z,13.23
2018-11-26T10:28:14.681Z,10.67
2018-11-26T10:32:26.894Z,10.43
2018-11-26T10:36:39.153Z,9.30
2018-11-26T10:40:51.316Z,9.57
2018-11-26T10:45:03.543Z,10.10
2018-11-26T10:49:15.870Z,10.77
2018-11-26T10:53:28.022Z,9.57
2018-11-26T10:57:40.167Z,8.17
2018-11-26T11:01:57.139Z,8.50
2018-11-26T11:06:09.523Z,10.53
2018-11-26T11:10:22.749Z,9.77
2018-11-26T11:14:35.057Z,6.97
2018-11-26T11:18:47.265Z,9.20
2018-11-26T11:22:59.642Z,9.43
2018-11-26T11:27:11.781Z,7.27
2018-11-26T11:31:24.143Z,8.07
2018-11-26T11:35:36.309Z,6.73
2018-11-26T11:39:48.495Z,8.67
2018-11-26T11:44:00.712Z,9.07
2018-11-26T11:48:12.963Z,7.87
2018-11-26T11:52:25.312Z,9.43
2018-11-26T11:56:37.618Z,8.00
2018-11-26T12:00:50.583Z,9.27
2018-11-26T12:05:02.671Z,8.93
2018-11-26T12:09:15.071Z,5.80
2018-11-26T12:13:27.154Z,10.23
2018-11-26T12:17:39.164Z,6.67
2018-11-26T12:21:51.482Z,6.53
2018-11-26T12:26:03.519Z,4.47
2018-11-26T12:30:17.066Z,4.83
2018-11-26T12:34:29.191Z,7.20
2018-11-26T12:38:41.463Z,7.80
2018-11-26T12:42:54.836Z,9.40
2018-11-26T12:47:07.193Z,5.37
2018-11-26T12:51:19.333Z,5.70
2018-11-26T12:55:31.582Z,7.33
2018-11-26T12:59:43.769Z,6.27
2018-11-26T13:03:56.015Z,6.33
2018-11-26T13:08:08.669Z,7.20
2018-11-26T13:12:20.772Z,7.40
2018-11-26T13:16:32.915Z,10.63
2018-11-26T13:20:45.005Z,8.67
2018-11-26T13:24:57.171Z,7.80
2018-11-26T13:29:09.532Z,4.67
2018-11-26T13:33:22.014Z,5.17
2018-11-26T13:37:34.008Z,6.57
2018-11-26T13:41:46.150Z,6.63
2018-11-26T13:45:58.462Z,7.10
2018-11-26T13:50:12.513Z,4.73
2018-11-26T13:54:24.539Z,4.87
2018-11-26T13:58:36.529Z,4.70
2018-11-26T14:02:49.070Z,6.90
2018-11-26T14:07:07.746Z,5.00
2018-11-26T14:11:21.008Z,6.73
2018-11-26T14:15:33.416Z,5.60
2018-11-26T14:19:45.320Z,8.57
2018-11-26T14:23:58.043Z,4.77
2018-11-26T14:28:10.911Z,7.53
2018-11-26T14:32:24.762Z,5.80
2018-11-26T14:36:36.843Z,6.27
2018-11-26T14:40:52.109Z,4.80
2018-11-26T14:45:05.689Z,5.13
2018-11-26T14:49:17.794Z,5.67
2018-11-26T14:53:32.351Z,6.50
2018-11-26T14:57:44.619Z,5.43
2018-11-26T15:01:56.997Z,5.30
2018-11-26T15:06:12.787Z,4.50
2018-11-26T15:10:26.648Z,6.30
2018-11-26T15:14:39.373Z,7.07
2018-11-26T15:18:51.515Z,6.23
2018-11-26T15:23:04.401Z,9.07
2018-11-26T15:27:16.476Z,13.07
2018-11-26T15:31:28.697Z,6.93
2018-11-26T15:35:40.750Z,4.87
2018-11-26T15:39:53.392Z,6.63
2018-11-26T15:44:05.699Z,5.53
2018-11-26T15:48:17.716Z,5.50
2018-11-26T15:52:30.174Z,3.90
2018-11-26T15:56:42.318Z,3.87
2018-11-26T16:00:54.682Z,6.23
2018-11-26T16:05:07.355Z,5.23
2018-11-26T16:09:19.550Z,5.83
2018-11-26T16:13:36.714Z,5.77
2018-11-26T16:17:49.229Z,7.40
2018-11-26T16:22:01.396Z,5.90
2018-11-26T16:26:13.415Z,13.30
2018-11-26T16:30:26.796Z,8.70
2018-11-26T16:34:39.103Z,7.50
2018-11-26T16:38:51.464Z,18.80
2018-11-26T16:43:06.349Z,25.73
2018-11-26T16:47:18.226Z,15.47
2018-11-26T16:51:30.449Z,8.00
2018-11-26T16:55:42.403Z,7.87
2018-11-26T16:59:54.571Z,7.70
2018-11-26T17:04:10.018Z,5.00
2018-11-26T17:08:22.089Z,5.53
2018-11-26T17:12:35.057Z,8.23
2018-11-26T17:16:47.463Z,7.67
2018-11-26T17:20:59.658Z,5.33
2018-11-26T17:25:15.783Z,5.13
2018-11-26T17:29:27.667Z,10.87
2018-11-26T17:33:39.884Z,16.37
2018-11-26T17:37:52.238Z,29.87
2018-11-26T17:42:04.300Z,38.43
2018-11-26T17:46:16.458Z,74.97
2018-11-26T17:50:33.679Z,52.87
2018-11-26T17:54:46.120Z,13.43
2018-11-26T17:58:58.378Z,10.90
2018-11-26T18:03:10.715Z,10.57
2018-11-26T18:07:22.896Z,10.07
2018-11-26T18:11:35.223Z,10.70
2018-11-26T18:15:47.348Z,10.23
2018-11-26T18:19:59.432Z,13.17
2018-11-26T18:24:11.624Z,12.47
2018-11-26T18:28:23.743Z,24.53
2018-11-26T18:32:36.056Z,28.63
2018-11-26T18:36:48.272Z,25.40
2018-11-26T18:41:00.623Z,48.47
2018-11-26T18:45:15.181Z,42.27
2018-11-26T18:49:27.544Z,38.83
2018-11-26T18:53:39.965Z,12.37
2018-11-26T18:57:52.399Z,14.30
2018-11-26T19:02:04.702Z,13.23
2018-11-26T19:06:16.923Z,22.03
2018-11-26T19:10:31.209Z,25.37
2018-11-26T19:14:43.218Z,19.60
2018-11-26T19:18:56.760Z,17.97
2018-11-26T19:23:09.004Z,16.50
2018-11-26T19:27:20.989Z,16.50
2018-11-26T19:31:33.262Z,17.17
2018-11-26T19:35:45.380Z,18.93
2018-11-26T19:39:57.478Z,21.00
2018-11-26T19:44:09.589Z,19.87
2018-11-26T19:48:21.815Z,20.53
2018-11-26T19:52:34.008Z,20.50
2018-11-26T19:56:46.112Z,17.87
2018-11-26T20:00:58.332Z,21.60
2018-11-26T20:05:12.934Z,22.17
2018-11-26T20:09:24.787Z,16.90
2018-11-26T20:13:36.868Z,21.03
2018-11-26T20:17:48.957Z,21.27
2018-11-26T20:22:01.047Z,22.33
2018-11-26T20:26:13.065Z,23.40
2018-11-26T20:30:25.182Z,19.67
2018-11-26T20:34:37.329Z,19.63
2018-11-26T20:38:49.762Z,21.50
2018-11-26T20:43:01.964Z,19.57
2018-11-26T20:47:14.075Z,23.23
2018-11-26T20:51:26.418Z,26.30
2018-11-26T20:55:38.509Z,24.23
2018-11-26T20:59:51.251Z,20.87
2018-11-26T21:04:03.199Z,32.40
2018-11-26T21:08:15.274Z,27.30
2018-11-26T21:12:27.576Z,28.00
2018-11-26T21:16:39.595Z,28.50
2018-11-26T21:20:52.953Z,31.20
2018-11-26T21:25:05.323Z,31.37
2018-11-26T21:29:17.392Z,26.13
2018-11-26T21:33:29.849Z,28.47
2018-11-26T21:37:42.601Z,29.57
2018-11-26T21:41:54.627Z,31.23
2018-11-26T21:46:07.018Z,24.13
2018-11-26T21:50:19.050Z,26.17
2018-11-26T21:54:31.135Z,26.00
2018-11-26T21:58:43.200Z,26.50
2018-11-26T22:02:55.530Z,22.23
2018-11-26T22:07:07.634Z,24.43
2018-11-26T22:11:19.667Z,25.20
2018-11-26T22:15:31.723Z,24.93
2018-11-26T22:19:43.956Z,24.70
2018-11-26T22:23:56.067Z,26.33
2018-11-26T22:28:09.348Z,25.53
2018-11-26T22:32:21.585Z,26.47
2018-11-26T22:36:33.887Z,22.10
2018-11-26T22:40:46.534Z,23.60
2018-11-26T22:44:58.678Z,21.03
2018-11-26T22:49:10.798Z,24.63
2018-11-26T22:53:22.947Z,30.27
2018-11-26T22:57:35.064Z,27.20
2018-11-26T23:01:47.298Z,24.37
2018-11-26T23:05:59.391Z,26.00
2018-11-26T23:10:11.989Z,22.63
2018-11-26T23:14:24.058Z,24.40
2018-11-26T23:18:36.040Z,24.03
2018-11-26T23:22:48.361Z,19.80
2018-11-26T23:27:00.388Z,21.40
2018-11-26T23:31:12.783Z,19.87
2018-11-26T23:35:24.885Z,22.70
2018-11-26T23:39:37.006Z,20.27
2018-11-26T23:43:49.025Z,26.73
2018-11-26T23:48:00.938Z,21.60
2018-11-26T23:52:13.078Z,19.70
2018-11-26T23:56:25.675Z,20.67
